Terminal Aerodrome Forecast
Issued by NWS Los Angeles, CA

Home | Current Version | Previous Version | Text Only | Print | Product List | Glossary On
Versions: 1 2 3 4 5 6 7 8 9 10 11 12 13 14 15 16 17 18 19
000
FTUS46 KLOX 300552
TAFSMX
TAF
KSMX 300552Z 3006/3106 VRB03KT P6SM SKC
     FM301000 VRB03KT 1/2SM FG VV001
     FM301400 VRB03KT 3SM BR OVC003
     FM301600 VRB03KT P6SM SCT006
     FM301800 31008KT P6SM SKC
     FM302100 31018G28KT P6SM SKC
     FM310300 31010KT P6SM SKC=

USA.gov is the U.S. government's official web portal to all federal, state and local government web resources and services.